createdAt,value
2019-02-09T00:01:41.146Z,83.89
2019-02-09T00:04:11.073Z,83.50
2019-02-09T00:06:40.277Z,82.67
2019-02-09T00:09:10.287Z,82.80
2019-02-09T00:11:40.394Z,82.85
2019-02-09T00:14:09.760Z,82.51
2019-02-09T00:16:39.316Z,82.33
2019-02-09T00:19:09.109Z,81.95
2019-02-09T00:21:38.697Z,81.53
2019-02-09T00:24:08.250Z,81.12
2019-02-09T00:26:38.004Z,81.06
2019-02-09T00:29:07.533Z,81.13
2019-02-09T00:31:37.056Z,81.29
2019-02-09T00:34:07.079Z,81.13
2019-02-09T00:36:36.304Z,81.00
2019-02-09T00:39:06.186Z,80.95
2019-02-09T00:41:36.205Z,80.87
2019-02-09T00:44:06.069Z,80.99
2019-02-09T00:46:35.489Z,80.83
2019-02-09T00:49:05.293Z,80.13
2019-02-09T00:51:34.844Z,79.82
2019-02-09T00:54:04.373Z,79.70
2019-02-09T00:56:34.485Z,78.98
2019-02-09T00:59:03.922Z,78.36
2019-02-09T01:01:33.264Z,77.98
2019-02-09T01:04:03.270Z,78.23
2019-02-09T01:06:32.869Z,78.08
2019-02-09T01:09:02.907Z,77.88
2019-02-09T01:11:32.665Z,77.77
2019-02-09T01:14:02.333Z,77.61
2019-02-09T01:16:31.586Z,77.83
2019-02-09T01:19:01.441Z,77.67
2019-02-09T01:21:30.754Z,77.44
2019-02-09T01:24:00.301Z,76.87
2019-02-09T01:26:30.228Z,76.83
2019-02-09T01:28:59.741Z,76.73
2019-02-09T01:31:29.243Z,76.63
2019-02-09T01:33:59.129Z,76.86
2019-02-09T01:36:28.659Z,76.39
2019-02-09T01:38:58.313Z,76.56
2019-02-09T01:41:28.062Z,76.29
2019-02-09T01:43:57.456Z,76.22
2019-02-09T01:46:26.879Z,75.53
2019-02-09T01:48:56.628Z,75.15
2019-02-09T01:51:25.948Z,75.07
2019-02-09T01:53:55.479Z,75.17
2019-02-09T01:56:25.527Z,74.96
2019-02-09T01:58:54.926Z,74.75
2019-02-09T02:01:24.148Z,74.87
2019-02-09T02:03:54.232Z,74.71
2019-02-09T02:06:23.740Z,74.51
2019-02-09T02:08:53.148Z,74.49
2019-02-09T02:11:23.392Z,74.70
2019-02-09T02:13:53.002Z,74.74
2019-02-09T02:16:22.540Z,74.60
2019-02-09T02:18:52.490Z,74.74
2019-02-09T02:21:34.564Z,74.63
2019-02-09T02:24:04.260Z,74.76
2019-02-09T02:26:33.543Z,74.76
2019-02-09T02:29:02.993Z,74.67
2019-02-09T02:31:32.745Z,74.59
2019-02-09T02:34:02.272Z,74.66
2019-02-09T02:36:31.839Z,74.18
2019-02-09T02:39:02.047Z,74.10
2019-02-09T02:41:31.413Z,74.23
2019-02-09T02:44:01.098Z,74.13
2019-02-09T02:46:30.870Z,74.22
2019-02-09T02:49:00.333Z,74.40
2019-02-09T02:51:29.830Z,74.79
2019-02-09T02:53:59.541Z,74.93
2019-02-09T02:56:29.250Z,74.86
2019-02-09T02:58:58.653Z,74.56
2019-02-09T03:01:28.475Z,74.68
2019-02-09T03:03:58.003Z,74.86
2019-02-09T03:06:27.368Z,74.83
2019-02-09T03:08:57.176Z,74.76
2019-02-09T03:11:26.614Z,74.78
2019-02-09T03:13:55.741Z,75.12
2019-02-09T03:16:25.666Z,75.42
2019-02-09T03:18:55.224Z,75.72
2019-02-09T03:21:24.592Z,76.11
2019-02-09T03:23:54.361Z,75.87
2019-02-09T03:26:23.719Z,76.08
2019-02-09T03:28:53.033Z,76.70
2019-02-09T03:31:23.047Z,76.74
2019-02-09T03:33:52.425Z,77.11
2019-02-09T03:36:21.859Z,77.78
2019-02-09T03:38:51.733Z,78.25
2019-02-09T03:41:21.222Z,78.94
2019-02-09T03:43:50.648Z,79.42
2019-02-09T03:46:20.336Z,80.35
2019-02-09T03:48:49.758Z,81.60
2019-02-09T03:51:19.171Z,82.74
2019-02-09T03:53:48.842Z,83.38
2019-02-09T03:56:18.321Z,84.55
2019-02-09T03:58:47.837Z,85.14
2019-02-09T04:01:17.480Z,85.55
2019-02-09T04:03:47.032Z,85.95
2019-02-09T04:06:16.369Z,86.70
2019-02-09T04:08:45.965Z,87.53
2019-02-09T04:11:15.506Z,88.21
2019-02-09T04:13:44.872Z,88.91
2019-02-09T04:16:14.400Z,89.29
2019-02-09T04:18:43.921Z,89.78
2019-02-09T04:21:13.388Z,90.18
2019-02-09T04:23:43.254Z,90.47
2019-02-09T04:26:12.638Z,90.58
2019-02-09T04:28:42.035Z,90.68
2019-02-09T04:31:11.903Z,90.42
2019-02-09T04:33:41.373Z,90.94
2019-02-09T04:36:10.863Z,91.45
2019-02-09T04:38:40.584Z,91.74
2019-02-09T04:41:09.865Z,92.00
2019-02-09T04:43:39.256Z,92.26
2019-02-09T04:46:08.928Z,92.17
2019-02-09T04:48:38.520Z,92.59
2019-02-09T04:51:08.013Z,92.76
2019-02-09T04:53:37.671Z,93.14
2019-02-09T04:56:07.217Z,93.17
2019-02-09T04:58:36.596Z,93.25
2019-02-09T05:01:13.782Z,93.30
2019-02-09T05:03:35.772Z,93.48
2019-02-09T05:06:05.480Z,93.84
2019-02-09T05:09:38.028Z,94.16
2019-02-09T05:12:07.562Z,94.36
2019-02-09T05:14:37.366Z,94.50
2019-02-09T05:17:06.789Z,94.75
2019-02-09T05:19:36.213Z,94.79
2019-02-09T05:22:06.001Z,94.55
2019-02-09T05:24:35.773Z,94.73
2019-02-09T05:27:05.399Z,95.13
2019-02-09T05:29:35.032Z,95.32
2019-02-09T05:32:04.447Z,95.36
2019-02-09T05:34:33.910Z,95.36
2019-02-09T05:37:03.668Z,95.44
2019-02-09T05:39:33.891Z,95.49
2019-02-09T05:42:02.773Z,95.53
2019-02-09T05:44:32.777Z,95.46
2019-02-09T05:47:02.343Z,95.51
2019-02-09T05:49:31.752Z,95.68
2019-02-09T05:52:01.680Z,95.87
2019-02-09T05:54:31.050Z,96.85
2019-02-09T05:57:00.413Z,98.15
2019-02-09T05:59:30.416Z,99.03
2019-02-09T06:01:59.917Z,99.56
2019-02-09T06:04:29.680Z,100.00
2019-02-09T06:07:05.248Z,100.00
2019-02-09T06:09:34.835Z,100.00
2019-02-09T06:12:04.450Z,100.00
2019-02-09T06:14:34.347Z,100.00
2019-02-09T06:17:03.887Z,100.00
2019-02-09T06:19:33.467Z,100.00
2019-02-09T06:22:03.463Z,100.00
2019-02-09T06:24:32.849Z,100.00
2019-02-09T06:27:02.264Z,100.00
2019-02-09T06:29:32.069Z,100.00
2019-02-09T06:32:01.677Z,100.00
2019-02-09T06:34:30.975Z,100.00
2019-02-09T06:37:01.754Z,100.00
2019-02-09T06:39:31.191Z,100.00
2019-02-09T06:42:00.359Z,100.00
2019-02-09T06:44:30.386Z,100.00
2019-02-09T06:46:59.596Z,100.00
2019-02-09T06:49:29.237Z,100.00
2019-02-09T06:51:59.068Z,100.00
2019-02-09T06:54:28.644Z,100.00
2019-02-09T06:56:57.871Z,100.00
2019-02-09T06:59:27.756Z,100.00
2019-02-09T07:01:56.964Z,100.00
2019-02-09T07:04:26.483Z,100.00
2019-02-09T07:06:56.449Z,100.00
2019-02-09T07:09:25.974Z,100.00
2019-02-09T07:11:55.825Z,100.00
2019-02-09T07:14:25.736Z,100.00
2019-02-09T07:16:55.070Z,100.00
2019-02-09T07:19:26.103Z,100.00
2019-02-09T07:21:54.286Z,100.00
2019-02-09T07:24:23.820Z,100.00
2019-02-09T07:26:53.347Z,100.00
2019-02-09T07:29:23.131Z,100.00
2019-02-09T07:31:56.547Z,100.00
2019-02-09T07:34:22.219Z,100.00
2019-02-09T07:36:51.682Z,100.00
2019-02-09T07:39:21.791Z,100.00
2019-02-09T07:41:52.346Z,100.00
2019-02-09T07:44:22.255Z,100.00
2019-02-09T07:46:51.612Z,100.00
2019-02-09T07:49:21.016Z,100.00
2019-02-09T07:51:50.766Z,100.00
2019-02-09T07:54:20.324Z,100.00
2019-02-09T07:56:49.670Z,100.00
2019-02-09T07:59:19.354Z,100.00
2019-02-09T08:01:48.618Z,100.00
2019-02-09T08:04:18.336Z,100.00
2019-02-09T08:06:47.901Z,100.00
2019-02-09T08:09:17.515Z,100.00
2019-02-09T08:11:46.839Z,99.64
2019-02-09T08:14:16.666Z,98.51
2019-02-09T08:16:46.175Z,97.12
2019-02-09T08:19:15.476Z,96.56
2019-02-09T08:21:45.068Z,96.59
2019-02-09T08:24:14.700Z,96.72
2019-02-09T08:26:44.279Z,96.85
2019-02-09T08:29:14.012Z,96.91
2019-02-09T08:31:43.252Z,96.81
2019-02-09T08:34:12.435Z,95.98
2019-02-09T08:36:42.596Z,95.24
2019-02-09T08:39:12.195Z,94.43
2019-02-09T08:41:41.894Z,93.47
2019-02-09T08:44:11.747Z,92.30
2019-02-09T08:46:41.272Z,91.36
2019-02-09T08:49:10.840Z,89.85
2019-02-09T08:51:40.392Z,88.92
2019-02-09T08:54:09.814Z,88.33
2019-02-09T08:56:38.977Z,87.20
2019-02-09T08:59:08.424Z,87.11
2019-02-09T09:01:37.556Z,86.99
2019-02-09T09:04:06.731Z,87.16
2019-02-09T09:06:36.522Z,87.74
2019-02-09T09:09:10.108Z,88.45
2019-02-09T09:11:39.249Z,88.97
2019-02-09T09:14:08.692Z,87.95
2019-02-09T09:16:37.871Z,87.34
2019-02-09T09:19:07.660Z,86.88
2019-02-09T09:21:37.101Z,87.32
2019-02-09T09:24:06.992Z,87.14
2019-02-09T09:26:36.540Z,86.97
2019-02-09T09:29:06.366Z,87.16
2019-02-09T09:31:36.000Z,86.95
2019-02-09T09:34:05.356Z,86.38
2019-02-09T09:36:34.921Z,86.45
2019-02-09T09:39:05.573Z,86.56
2019-02-09T09:41:34.898Z,85.96
2019-02-09T09:44:04.441Z,85.24
2019-02-09T09:46:33.680Z,84.27
2019-02-09T09:49:02.834Z,83.10
2019-02-09T09:51:32.388Z,83.64
2019-02-09T09:54:01.814Z,82.69
2019-02-09T09:56:30.948Z,82.45
2019-02-09T09:59:00.389Z,83.32
2019-02-09T10:01:29.766Z,82.66
2019-02-09T10:03:59.170Z,83.67
2019-02-09T10:06:28.755Z,84.56
2019-02-09T10:08:57.924Z,85.25
2019-02-09T10:11:27.138Z,84.93
2019-02-09T10:13:56.814Z,84.54
2019-02-09T10:16:26.176Z,84.87
2019-02-09T10:18:55.924Z,85.28
2019-02-09T10:21:25.476Z,85.75
2019-02-09T10:23:54.630Z,86.16
2019-02-09T10:26:24.134Z,85.98
2019-02-09T10:28:53.564Z,85.73
2019-02-09T10:31:23.448Z,85.05
2019-02-09T10:33:52.811Z,83.87
2019-02-09T10:36:22.434Z,83.53
2019-02-09T10:38:52.071Z,82.68
2019-02-09T10:41:21.584Z,81.87
2019-02-09T10:43:51.863Z,80.60
2019-02-09T10:46:21.572Z,79.17
2019-02-09T10:48:51.063Z,78.71
2019-02-09T10:51:21.179Z,78.51
2019-02-09T10:53:50.404Z,77.69
2019-02-09T10:56:19.820Z,77.15
2019-02-09T10:58:49.355Z,77.33
2019-02-09T11:01:20.717Z,75.12
2019-02-09T11:03:50.232Z,72.78
2019-02-09T11:06:19.979Z,70.79
2019-02-09T11:08:49.394Z,71.57
2019-02-09T11:11:18.665Z,71.86
2019-02-09T11:13:48.116Z,69.32
2019-02-09T11:16:26.615Z,68.79
2019-02-09T11:18:56.124Z,67.14
2019-02-09T11:21:25.636Z,66.67
2019-02-09T11:23:54.923Z,67.36
2019-02-09T11:26:24.352Z,67.92
2019-02-09T11:28:53.507Z,66.54
2019-02-09T11:31:22.755Z,66.72
2019-02-09T11:33:52.713Z,65.89
2019-02-09T11:36:22.665Z,63.72
2019-02-09T11:38:52.010Z,64.37
2019-02-09T11:41:22.045Z,63.36
2019-02-09T11:43:51.406Z,63.75
2019-02-09T11:46:20.900Z,63.72
2019-02-09T11:48:51.516Z,63.28
2019-02-09T11:51:20.973Z,62.71
2019-02-09T11:53:50.252Z,63.25
2019-02-09T11:56:20.524Z,63.66
2019-02-09T11:58:50.514Z,63.32
2019-02-09T12:01:20.920Z,63.89
2019-02-09T12:03:50.751Z,64.44
2019-02-09T12:06:20.029Z,63.62
2019-02-09T12:08:53.387Z,64.13
2019-02-09T12:11:22.880Z,63.44
2019-02-09T12:13:55.302Z,61.89
2019-02-09T12:16:22.019Z,61.96
2019-02-09T12:18:52.179Z,62.97
2019-02-09T12:21:21.671Z,64.46
2019-02-09T12:23:51.073Z,64.39
2019-02-09T12:26:20.562Z,63.62
2019-02-09T12:28:49.914Z,63.41
2019-02-09T12:31:19.242Z,63.29
2019-02-09T12:33:49.210Z,62.40
2019-02-09T12:36:18.596Z,61.82
2019-02-09T12:38:50.002Z,62.11
2019-02-09T12:41:19.892Z,61.17
2019-02-09T12:43:49.168Z,61.30
2019-02-09T12:46:18.732Z,58.75
2019-02-09T12:48:49.018Z,59.19
2019-02-09T12:51:18.836Z,59.73
2019-02-09T12:53:49.043Z,60.57
2019-02-09T12:56:19.300Z,59.40
2019-02-09T12:58:49.545Z,59.18
2019-02-09T13:01:19.164Z,59.33
2019-02-09T13:03:48.760Z,60.37
2019-02-09T13:06:18.225Z,61.20
2019-02-09T13:08:47.807Z,61.58
2019-02-09T13:11:17.323Z,62.62
2019-02-09T13:13:46.884Z,62.63
2019-02-09T13:16:16.442Z,61.94
2019-02-09T13:18:46.388Z,62.20
2019-02-09T13:21:15.652Z,62.38
2019-02-09T13:23:45.480Z,62.91
2019-02-09T13:26:15.208Z,63.45
2019-02-09T13:28:44.676Z,63.17
2019-02-09T13:31:14.105Z,62.67
2019-02-09T13:33:43.777Z,61.99
2019-02-09T13:36:13.275Z,61.52
2019-02-09T13:38:42.466Z,62.31
2019-02-09T13:41:12.020Z,63.07
2019-02-09T13:43:41.611Z,63.51
2019-02-09T13:46:10.940Z,63.94
2019-02-09T13:48:40.769Z,63.47
2019-02-09T13:51:10.121Z,63.59
2019-02-09T13:53:39.293Z,63.49
2019-02-09T13:56:09.057Z,62.97
2019-02-09T13:58:38.215Z,63.07
2019-02-09T14:01:07.375Z,62.65
2019-02-09T14:03:37.576Z,62.86
2019-02-09T14:06:08.287Z,62.08
2019-02-09T14:08:36.120Z,60.48
2019-02-09T14:11:06.235Z,60.04
2019-02-09T14:13:35.602Z,60.51
2019-02-09T14:16:08.377Z,60.72
2019-02-09T14:18:34.896Z,60.50
2019-02-09T14:21:04.363Z,60.66
2019-02-09T14:23:33.595Z,61.35
2019-02-09T14:26:03.248Z,62.12
2019-02-09T14:28:32.949Z,62.36
2019-02-09T14:31:02.303Z,63.21
2019-02-09T14:33:32.156Z,63.87
2019-02-09T14:36:01.404Z,63.76
2019-02-09T14:38:30.732Z,63.22
2019-02-09T14:41:00.398Z,63.39
2019-02-09T14:43:30.637Z,63.96
2019-02-09T14:45:59.888Z,63.58
2019-02-09T14:48:29.795Z,63.71
2019-02-09T14:50:59.097Z,63.78
2019-02-09T14:53:28.559Z,63.91
2019-02-09T14:55:58.599Z,63.63
2019-02-09T14:58:27.777Z,63.36
2019-02-09T15:00:56.988Z,64.07
2019-02-09T15:03:30.601Z,64.13
2019-02-09T15:05:56.757Z,64.61
2019-02-09T15:08:26.943Z,64.76
2019-02-09T15:11:01.216Z,65.11
2019-02-09T15:13:34.216Z,64.95
2019-02-09T15:16:15.331Z,64.75
2019-02-09T15:18:44.778Z,64.96
2019-02-09T15:21:17.730Z,65.37
2019-02-09T15:23:47.020Z,65.10
2019-02-09T15:26:16.549Z,65.00
2019-02-09T15:28:46.189Z,65.32
2019-02-09T15:31:15.384Z,65.24
2019-02-09T15:33:50.816Z,65.61
2019-02-09T15:36:20.249Z,65.79
2019-02-09T15:38:49.822Z,66.61
2019-02-09T15:41:19.020Z,67.14
2019-02-09T15:43:48.721Z,67.36
2019-02-09T15:46:18.493Z,67.24
2019-02-09T15:48:48.096Z,67.68
2019-02-09T15:51:17.590Z,67.94
2019-02-09T15:53:47.064Z,68.27
2019-02-09T15:56:16.816Z,68.49
2019-02-09T15:58:46.523Z,68.89
2019-02-09T16:01:15.784Z,69.20
2019-02-09T16:03:45.254Z,69.51
2019-02-09T16:06:14.980Z,69.79
2019-02-09T16:08:44.264Z,69.81
2019-02-09T16:11:13.674Z,69.83
2019-02-09T16:13:45.852Z,70.25
2019-02-09T16:16:12.878Z,70.65
2019-02-09T16:18:42.412Z,71.08
2019-02-09T16:21:12.108Z,71.43
2019-02-09T16:23:41.340Z,71.80
2019-02-09T16:26:10.931Z,72.27
2019-02-09T16:28:40.713Z,72.50
2019-02-09T16:31:10.175Z,72.66
2019-02-09T16:33:39.820Z,72.75
2019-02-09T16:36:09.722Z,73.07
2019-02-09T16:38:39.554Z,73.25
2019-02-09T16:41:08.236Z,73.66
2019-02-09T16:43:37.959Z,74.04
2019-02-09T16:46:07.346Z,74.46
2019-02-09T16:48:36.494Z,74.81
2019-02-09T16:51:06.254Z,75.35
2019-02-09T16:53:35.460Z,75.79
2019-02-09T16:56:09.068Z,76.12
2019-02-09T16:58:38.863Z,76.44
2019-02-09T17:01:08.108Z,76.52
2019-02-09T17:03:37.517Z,76.71
2019-02-09T17:06:07.402Z,76.88
2019-02-09T17:08:36.871Z,77.08
2019-02-09T17:11:06.456Z,77.10
2019-02-09T17:13:36.901Z,77.32
2019-02-09T17:16:06.274Z,77.42
2019-02-09T17:18:35.978Z,77.45
2019-02-09T17:21:05.788Z,77.64
2019-02-09T17:23:35.267Z,77.77
2019-02-09T17:26:05.674Z,77.96
2019-02-09T17:28:35.777Z,78.21
2019-02-09T17:31:05.233Z,78.28
2019-02-09T17:33:34.916Z,78.13
2019-02-09T17:36:04.454Z,78.85
2019-02-09T17:38:33.801Z,79.14
2019-02-09T17:41:03.265Z,79.16
2019-02-09T17:43:32.940Z,79.22
2019-02-09T17:46:07.496Z,79.50
2019-02-09T17:48:36.947Z,79.49
2019-02-09T17:51:06.668Z,79.70
2019-02-09T17:53:35.964Z,79.67
2019-02-09T17:56:05.489Z,79.80
2019-02-09T17:58:35.342Z,80.03
2019-02-09T18:01:08.017Z,80.04
2019-02-09T18:03:37.328Z,80.08
2019-02-09T18:06:08.266Z,80.01
2019-02-09T18:08:37.595Z,80.09
2019-02-09T18:11:07.440Z,80.21
2019-02-09T18:13:37.136Z,80.41
2019-02-09T18:16:06.936Z,80.36
2019-02-09T18:18:36.384Z,80.61
2019-02-09T18:21:05.975Z,80.61
2019-02-09T18:23:35.639Z,80.82
2019-02-09T18:26:05.104Z,80.96
2019-02-09T18:28:34.787Z,80.97
2019-02-09T18:31:04.821Z,81.04
2019-02-09T18:33:34.066Z,81.01
2019-02-09T18:36:03.812Z,80.66
2019-02-09T18:38:33.050Z,80.86
2019-02-09T18:41:02.725Z,80.64
2019-02-09T18:43:32.571Z,80.67
2019-02-09T18:46:01.870Z,80.53
2019-02-09T18:48:31.748Z,80.53
2019-02-09T18:51:01.228Z,80.57
2019-02-09T18:53:30.503Z,80.71
2019-02-09T18:55:59.864Z,80.96
2019-02-09T18:58:30.148Z,81.24
2019-02-09T19:01:00.336Z,81.42
2019-02-09T19:03:29.659Z,81.67
2019-02-09T19:05:59.293Z,81.70
2019-02-09T19:08:28.444Z,81.75
2019-02-09T19:10:57.676Z,81.84
2019-02-09T19:13:27.671Z,82.04
2019-02-09T19:15:56.859Z,82.39
2019-02-09T19:18:26.071Z,82.67
2019-02-09T19:21:01.111Z,83.00
2019-02-09T19:23:36.391Z,83.00
2019-02-09T19:26:10.088Z,83.51
2019-02-09T19:28:39.367Z,83.73
2019-02-09T19:31:08.595Z,83.84
2019-02-09T19:33:38.170Z,84.13
2019-02-09T19:36:08.057Z,84.43
2019-02-09T19:38:37.276Z,84.69
2019-02-09T19:41:07.160Z,84.75
2019-02-09T19:43:36.996Z,84.93
2019-02-09T19:46:07.393Z,85.18
2019-02-09T19:48:36.929Z,85.25
2019-02-09T19:51:06.952Z,85.50
2019-02-09T19:53:37.440Z,85.39
2019-02-09T19:56:07.049Z,85.60
2019-02-09T19:58:38.545Z,85.52
2019-02-09T20:01:08.068Z,85.54
2019-02-09T20:03:37.717Z,85.80
2019-02-09T20:06:06.974Z,86.14
2019-02-09T20:08:36.275Z,86.44
2019-02-09T20:11:06.243Z,86.45
2019-02-09T20:13:35.412Z,86.63
2019-02-09T20:16:05.759Z,86.46
2019-02-09T20:18:35.473Z,86.65
2019-02-09T20:21:05.173Z,86.71
2019-02-09T20:23:34.525Z,86.76
2019-02-09T20:26:05.521Z,86.82
2019-02-09T20:28:35.157Z,86.86
2019-02-09T20:31:08.024Z,86.70
2019-02-09T20:33:38.729Z,87.09
2019-02-09T20:36:08.116Z,87.04
2019-02-09T20:38:38.115Z,87.25
2019-02-09T20:41:16.126Z,87.11
2019-02-09T20:43:48.481Z,86.72
2019-02-09T20:46:18.689Z,86.93
2019-02-09T20:48:48.789Z,86.73
2019-02-09T20:51:24.438Z,86.66
2019-02-09T20:53:54.005Z,86.59
2019-02-09T20:56:27.821Z,86.62
2019-02-09T20:58:57.294Z,87.12
2019-02-09T21:01:29.085Z,87.49
2019-02-09T21:03:58.639Z,87.77
2019-02-09T21:06:28.053Z,88.08
2019-02-09T21:08:57.648Z,88.55
2019-02-09T21:11:27.246Z,88.89
2019-02-09T21:13:57.018Z,88.73
2019-02-09T21:16:26.819Z,88.63
2019-02-09T21:18:57.406Z,88.96
2019-02-09T21:21:28.880Z,89.44
2019-02-09T21:23:58.582Z,89.79
2019-02-09T21:26:27.859Z,90.67
2019-02-09T21:28:57.313Z,90.99
2019-02-09T21:31:27.223Z,91.13
2019-02-09T21:33:56.434Z,91.46
2019-02-09T21:36:25.782Z,91.84
2019-02-09T21:38:55.748Z,91.97
2019-02-09T21:41:25.154Z,91.74
2019-02-09T21:43:54.503Z,91.55
2019-02-09T21:46:24.050Z,91.44
2019-02-09T21:48:53.408Z,91.44
2019-02-09T21:51:22.714Z,91.42
2019-02-09T21:53:52.284Z,91.10
2019-02-09T21:56:22.000Z,91.09
2019-02-09T21:58:51.329Z,91.03
2019-02-09T22:01:21.016Z,90.97
2019-02-09T22:03:50.592Z,90.86
2019-02-09T22:06:20.122Z,90.80
2019-02-09T22:08:49.679Z,90.67
2019-02-09T22:11:19.315Z,90.49
2019-02-09T22:13:48.713Z,90.34
2019-02-09T22:16:18.565Z,90.38
2019-02-09T22:18:48.605Z,90.20
2019-02-09T22:21:17.937Z,90.26
2019-02-09T22:23:47.955Z,90.01
2019-02-09T22:26:17.272Z,90.31
2019-02-09T22:28:46.651Z,90.22
2019-02-09T22:31:21.711Z,90.18
2019-02-09T22:33:46.243Z,90.12
2019-02-09T22:36:16.322Z,90.42
2019-02-09T22:38:45.788Z,90.44
2019-02-09T22:41:15.841Z,90.61
2019-02-09T22:43:45.097Z,90.91
2019-02-09T22:46:14.623Z,91.02
2019-02-09T22:48:46.174Z,90.98
2019-02-09T22:51:15.719Z,90.80
2019-02-09T22:53:45.433Z,90.64
2019-02-09T22:56:14.752Z,90.76
2019-02-09T22:58:44.296Z,90.99
2019-02-09T23:01:46.780Z,91.18
2019-02-09T23:06:31.531Z,91.25
2019-02-09T23:09:00.883Z,90.80
2019-02-09T23:11:30.514Z,90.92
2019-02-09T23:14:00.370Z,90.93
2019-02-09T23:16:29.939Z,91.26
2019-02-09T23:18:59.869Z,91.21
2019-02-09T23:21:29.406Z,91.30
2019-02-09T23:23:58.974Z,91.44
2019-02-09T23:26:28.444Z,91.65
2019-02-09T23:28:57.969Z,91.94
2019-02-09T23:31:28.439Z,91.96
2019-02-09T23:33:57.665Z,92.23
2019-02-09T23:36:27.255Z,92.37
2019-02-09T23:38:56.817Z,92.56
2019-02-09T23:41:26.149Z,92.94
2019-02-09T23:44:01.291Z,93.13
2019-02-09T23:46:30.764Z,93.17
2019-02-09T23:49:00.168Z,93.41
2019-02-09T23:51:29.868Z,93.18
2019-02-09T23:53:59.553Z,93.66
2019-02-09T23:56:28.729Z,93.82
2019-02-09T23:58:58.483Z,93.94
